Airfield :







YOU CAN JOIN US ON...

 
LOGIN :

Register | Disclaimer

   EN    FR    IT 

 









Legend :    VFR   Marginal VFR   IFR   Intensive IFR   Very Intensive IFR
Visi :
Ceiling :
>= 8 km
>= 3000ft
5 to 8 km
1000 to 3000 ft
1500m to 5 km
500 to 1000 ft
800 to 1500m
200 to 500 ft
< 800m
< 200 ft
Symbols :   Thunderstorms  Fog  Heavy snow  Heavy precipitations  Wind > 20 kt







- Airport Elevation : 322 ft


KDAW - Skyhaven

CURRENT METAR :
  • 202251Z AUTO VRB04KT 4SM BR OVC003 16/15 A2951 RMK AO2 SLP991 T01560150

EXPIRED METARs :
  • 202240Z AUTO 04006KT 1 3/4SM BR OVC003 16/15 A2952 RMK AO2 T01560150
  • 202224Z AUTO 34006KT 1/2SM FG VV002 16/15 A2953 RMK AO2 T01610150
  • 202206Z AUTO 00000KT 1/4SM FG VV002 16/15 A2952 RMK AO2 T01560150
  • 202151Z AUTO 13004KT 1/2SM FG VV002 16/15 A2951 RMK AO2 RAE02 SLP990 P0001 T01560150
  • 202123Z AUTO 16004KT 3/4SM BR OVC002 16/15 A2952 RMK AO2 RAE02 P0001 T01560150
  • 202051Z AUTO 15004KT 1 1/4SM -RA BR OVC003 16/15 A2953 RMK AO2 LTG DSNT N AND NW SLP998 P0003 60022 T01560150 56027
  • 202039Z AUTO 14005KT 1 3/4SM VCTS -RA BR OVC003 16/15 A2954 RMK AO2 LTG DSNT NW P0003 T01560150
  • 202018Z AUTO 12006KT 1 3/4SM -RA BR OVC003 16/14 A2955 RMK AO2 LTG DSNT W P0001 T01560144

TAF N/A
KZBW FIR / North America



MET'MAP, your aeronautical weather chart ! - Copyright ORBIFLY December 2007 - Disclaimer

ORBIFLY MET'MAP TEAM :

Programming & Development : Alexandra Zaïnal
Concept & Development : Baudouin d'Aumeries
Co-Development & Prog : Marc-Olivier Méhu
Technical & hardware support : Manuel Goepfert

Contact : metmap@orbifly.com




SOURCES & CREDITS :

   NOAA